Vienna, Austria

5:23 AM CET on 十一月 01, 2014 (GMT +0100)
1030 Wien | Change Station
CLOSE
Current Station
個人気象観測所
Location: VIENNA, Wien
高度: 630 ft
最寄りの気象観測所

高度 630 ft 48.19 °N, 16.39 °E | Updated 7 minutes ago

Scattered Clouds
やや曇
45.8 °F
体感気温 46 °F
0.0
風 変数 風 から 東北東
Gusts 4.0 Mph

今日
高い -- | 低 -- °F
--% 降水確率
昨日
高い -- | 低 -- °F
Precip. -- インチ
6:39 AM 4:36 PM
十三夜, 62% visible
気圧 30.30 インチ
視程 5.0 マイル
やや曇 3100 ft
体感気温(寒さ) 46 °F
露点温度 44 °F
湿度 95%
降水 0.00 インチ
積雪深 利用不可。
紫外線 0 の内の 12
花粉 利用不可。
空気品質 利用不可。
Flu Activity 利用不可。
METAR LOWW 010350Z 18003KT 8000 SCT031 06/05 Q1026 BECMG 3000 BR

More Conditions Fewer Conditions

気圧 30.30 インチ
視程 5.0 マイル
やや曇 3100 ft
体感気温(寒さ) 46 °F
露点温度 44 °F
湿度 95%
降水 0.00 インチ
積雪深 利用不可。
紫外線 0 の内の 12
花粉 利用不可。
空気品質 利用不可。
Flu Activity 利用不可。
METAR LOWW 010350Z 18003KT 8000 SCT031 06/05 Q1026 BECMG 3000 BR

More Conditions Fewer Conditions

10-Day Weather Forecast

Almanac

天文

Nov. 01, 2014 入り
実時間
常用薄明
航海薄明
天文薄明
可視光の長さ
可照時間
Tomorrow will be .
, % of the Moon is Illuminated

今日の極値

Country Highs Country Lows

Community

WunderPhotos

Upload Photos

1,766,853 写真がアップロードされました!

WunderBlogs® & News

Nearby

空気品質

  空気品質 大気質指数 汚染物質
Not available.

積雪深

Station Depth 高度

地震活動

Distance Mag. Time & Date
Minimum magnitude displayed is 2.5.

沿岸の水温

地名 気温

最寄りの気象観測所